createdAt,value
2018-11-11T00:00:48.982Z,75.23
2018-11-11T00:03:17.852Z,76.40
2018-11-11T00:05:46.767Z,75.70
2018-11-11T00:08:15.838Z,74.33
2018-11-11T00:10:44.704Z,80.10
2018-11-11T00:13:13.599Z,73.80
2018-11-11T00:15:42.500Z,78.23
2018-11-11T00:18:11.591Z,81.40
2018-11-11T00:20:40.483Z,77.10
2018-11-11T00:23:09.396Z,76.30
2018-11-11T00:25:38.369Z,75.90
2018-11-11T00:28:07.243Z,79.43
2018-11-11T00:30:36.146Z,77.87
2018-11-11T00:33:05.566Z,77.83
2018-11-11T00:35:34.598Z,84.37
2018-11-11T00:38:03.492Z,79.67
2018-11-11T00:40:32.425Z,82.90
2018-11-11T00:43:01.325Z,82.53
2018-11-11T00:45:30.284Z,77.67
2018-11-11T00:47:59.244Z,77.87
2018-11-11T00:50:28.144Z,79.90
2018-11-11T00:52:57.034Z,79.70
2018-11-11T00:55:27.954Z,75.03
2018-11-11T00:57:56.822Z,69.53
2018-11-11T01:00:25.672Z,70.67
2018-11-11T01:02:54.961Z,71.70
2018-11-11T01:05:23.812Z,70.07
2018-11-11T01:07:52.669Z,72.23
2018-11-11T01:10:21.609Z,69.47
2018-11-11T01:12:50.508Z,67.70
2018-11-11T01:15:19.380Z,68.37
2018-11-11T01:17:48.343Z,71.80
2018-11-11T01:20:17.996Z,68.23
2018-11-11T01:22:47.382Z,68.57
2018-11-11T01:25:17.500Z,67.37
2018-11-11T01:27:46.382Z,68.13
2018-11-11T01:30:15.261Z,68.77
2018-11-11T01:32:44.183Z,64.80
2018-11-11T01:35:14.240Z,61.60
2018-11-11T01:37:43.664Z,63.17
2018-11-11T01:40:12.719Z,64.10
2018-11-11T01:42:41.586Z,63.67
2018-11-11T01:45:13.879Z,61.27
2018-11-11T01:47:42.927Z,60.53
2018-11-11T01:50:12.931Z,60.60
2018-11-11T01:52:42.008Z,58.33
2018-11-11T01:55:11.729Z,61.23
2018-11-11T01:57:40.762Z,59.30
2018-11-11T02:00:12.705Z,57.30
2018-11-11T02:02:41.751Z,62.23
2018-11-11T02:05:12.066Z,58.63
2018-11-11T02:07:41.851Z,61.70
2018-11-11T02:10:11.042Z,59.20
2018-11-11T02:12:41.853Z,57.33
2018-11-11T02:15:12.111Z,56.20
2018-11-11T02:17:41.178Z,56.97
2018-11-11T02:20:12.759Z,54.27
2018-11-11T02:22:42.041Z,54.07
2018-11-11T02:25:11.209Z,51.93
2018-11-11T02:27:40.191Z,53.63
2018-11-11T02:30:11.980Z,54.80
2018-11-11T02:32:41.692Z,51.47
2018-11-11T02:35:11.140Z,51.57
2018-11-11T02:37:40.192Z,52.90
2018-11-11T02:40:11.760Z,52.13
2018-11-11T02:42:40.741Z,52.53
2018-11-11T02:45:11.472Z,50.83
2018-11-11T02:47:40.368Z,49.47
2018-11-11T02:50:11.012Z,49.90
2018-11-11T02:52:40.429Z,51.70
2018-11-11T02:55:09.765Z,51.30
2018-11-11T02:57:39.474Z,52.43
2018-11-11T03:00:13.377Z,52.70
2018-11-11T03:02:43.440Z,49.93
2018-11-11T03:05:13.831Z,52.37
2018-11-11T03:07:42.755Z,51.87
2018-11-11T03:10:12.589Z,51.50
2018-11-11T03:12:42.059Z,47.53
2018-11-11T03:15:11.962Z,47.93
2018-11-11T03:17:40.858Z,45.50
2018-11-11T03:20:10.860Z,45.63
2018-11-11T03:22:39.740Z,48.53
2018-11-11T03:25:10.307Z,47.67
2018-11-11T03:27:39.280Z,47.80
2018-11-11T03:30:10.131Z,47.73
2018-11-11T03:32:39.489Z,47.40
2018-11-11T03:35:10.193Z,48.40
2018-11-11T03:37:39.091Z,49.87
2018-11-11T03:40:10.846Z,49.27
2018-11-11T03:42:39.740Z,48.83
2018-11-11T03:45:11.060Z,49.93
2018-11-11T03:47:40.008Z,47.23
2018-11-11T03:50:09.759Z,48.83
2018-11-11T03:52:39.076Z,49.00
2018-11-11T03:55:08.318Z,48.93
2018-11-11T03:57:37.515Z,48.93
2018-11-11T04:00:10.851Z,48.73
2018-11-11T04:02:39.780Z,48.83
2018-11-11T04:05:10.136Z,51.47
2018-11-11T04:07:39.183Z,50.93
2018-11-11T04:10:10.546Z,48.50
2018-11-11T04:12:39.902Z,47.73
2018-11-11T04:15:10.713Z,50.73
2018-11-11T04:17:39.937Z,52.70
2018-11-11T04:20:11.120Z,50.87
2018-11-11T04:22:40.029Z,51.07
2018-11-11T04:25:09.393Z,50.90
2018-11-11T04:27:38.288Z,49.93
2018-11-11T04:30:07.990Z,50.60
2018-11-11T04:32:36.880Z,50.00
2018-11-11T04:35:06.336Z,50.30
2018-11-11T04:37:35.205Z,48.57
2018-11-11T04:40:04.291Z,51.33
2018-11-11T04:42:33.224Z,48.47
2018-11-11T04:45:02.096Z,48.93
2018-11-11T04:47:30.967Z,49.43
2018-11-11T04:49:59.888Z,51.33
2018-11-11T04:52:28.752Z,46.20
2018-11-11T04:54:57.663Z,49.73
2018-11-11T04:57:26.560Z,51.27
2018-11-11T04:59:55.620Z,49.23
2018-11-11T05:02:24.497Z,48.33
2018-11-11T05:04:53.462Z,51.00
2018-11-11T05:07:22.330Z,50.40
2018-11-11T05:09:51.237Z,50.43
2018-11-11T05:12:20.165Z,50.07
2018-11-11T05:14:49.024Z,50.77
2018-11-11T05:17:17.890Z,48.83
2018-11-11T05:19:46.784Z,49.60
2018-11-11T05:22:15.668Z,49.83
2018-11-11T05:24:44.549Z,51.63
2018-11-11T05:27:13.523Z,51.10
2018-11-11T05:29:42.407Z,49.23
2018-11-11T05:32:11.326Z,50.93
2018-11-11T05:34:40.266Z,53.37
2018-11-11T05:37:09.139Z,51.17
2018-11-11T05:39:38.013Z,49.63
2018-11-11T05:42:06.943Z,53.30
2018-11-11T05:44:35.821Z,51.77
2018-11-11T05:47:04.731Z,51.43
2018-11-11T05:49:33.720Z,50.70
2018-11-11T05:52:02.615Z,52.53
2018-11-11T05:54:31.483Z,52.13
2018-11-11T05:57:00.420Z,52.37
2018-11-11T05:59:29.270Z,54.10
2018-11-11T06:01:58.198Z,54.17
2018-11-11T06:04:27.102Z,50.93
2018-11-11T06:06:55.970Z,52.97
2018-11-11T06:09:24.835Z,52.00
2018-11-11T06:11:53.750Z,53.53
2018-11-11T06:14:22.703Z,51.10
2018-11-11T06:16:51.577Z,52.63
2018-11-11T06:19:20.472Z,50.97
2018-11-11T06:21:49.412Z,51.60
2018-11-11T06:24:18.322Z,50.07
2018-11-11T06:26:47.335Z,50.90
2018-11-11T06:29:17.047Z,51.10
2018-11-11T06:31:45.972Z,52.23
2018-11-11T06:34:14.920Z,52.70
2018-11-11T06:36:43.818Z,52.73
2018-11-11T06:39:13.386Z,51.57
2018-11-11T06:41:42.482Z,51.87
2018-11-11T06:44:11.400Z,47.60
2018-11-11T06:46:40.306Z,50.20
2018-11-11T06:49:09.172Z,50.73
2018-11-11T06:51:38.127Z,49.97
2018-11-11T06:54:07.120Z,48.07
2018-11-11T06:56:36.013Z,48.97
2018-11-11T06:59:05.041Z,47.90
2018-11-11T07:01:33.971Z,50.60
2018-11-11T07:04:03.805Z,49.70
2018-11-11T07:06:33.267Z,50.10
2018-11-11T07:09:02.177Z,51.33
2018-11-11T07:11:31.122Z,52.90
2018-11-11T07:14:00.050Z,49.57
2018-11-11T07:16:28.933Z,50.27
2018-11-11T07:18:57.854Z,53.03
2018-11-11T07:21:26.752Z,51.03
2018-11-11T07:23:55.664Z,65.80
2018-11-11T07:26:24.610Z,56.47
2018-11-11T07:28:53.484Z,57.23
2018-11-11T07:31:22.473Z,51.83
2018-11-11T07:33:51.340Z,50.03
2018-11-11T07:36:20.208Z,49.20
2018-11-11T07:38:49.129Z,50.93
2018-11-11T07:41:18.152Z,51.37
2018-11-11T07:43:47.132Z,51.03
2018-11-11T07:46:16.228Z,50.33
2018-11-11T07:48:45.194Z,48.70
2018-11-11T07:51:14.094Z,53.27
2018-11-11T07:53:43.064Z,52.57
2018-11-11T07:56:12.209Z,50.70
2018-11-11T07:58:41.167Z,50.53
2018-11-11T08:01:10.234Z,52.10
2018-11-11T08:03:39.232Z,50.83
2018-11-11T08:06:08.127Z,50.40
2018-11-11T08:08:37.039Z,50.87
2018-11-11T08:12:14.578Z,48.77
2018-11-11T08:14:43.471Z,45.40
2018-11-11T08:17:12.536Z,44.90
2018-11-11T08:19:41.533Z,45.50
2018-11-11T08:22:11.406Z,44.43
2018-11-11T08:24:40.298Z,45.90
2018-11-11T08:27:09.253Z,45.83
2018-11-11T08:29:38.152Z,47.70
2018-11-11T08:32:07.628Z,44.03
2018-11-11T08:34:36.566Z,42.90
2018-11-11T08:37:06.332Z,42.13
2018-11-11T08:39:35.253Z,42.00
2018-11-11T08:42:04.959Z,42.87
2018-11-11T08:44:34.156Z,44.77
2018-11-11T08:47:03.093Z,43.73
2018-11-11T08:49:32.515Z,43.63
2018-11-11T08:52:02.175Z,44.23
2018-11-11T08:54:31.148Z,44.27
2018-11-11T08:57:00.147Z,44.43
2018-11-11T08:59:29.200Z,43.87
2018-11-11T09:01:59.015Z,42.33
2018-11-11T09:04:27.984Z,41.93
2018-11-11T09:06:56.948Z,41.80
2018-11-11T09:09:27.435Z,42.20
2018-11-11T09:11:56.451Z,42.00
2018-11-11T09:14:25.464Z,41.87
2018-11-11T09:16:54.456Z,42.40
2018-11-11T09:19:23.438Z,41.37
2018-11-11T09:21:52.338Z,39.53
2018-11-11T09:24:21.410Z,39.93
2018-11-11T09:26:51.367Z,41.73
2018-11-11T09:29:20.266Z,41.50
2018-11-11T09:31:49.179Z,40.90
2018-11-11T09:34:18.135Z,41.50
2018-11-11T09:36:47.033Z,42.37
2018-11-11T09:39:15.980Z,43.47
2018-11-11T09:41:44.955Z,42.30
2018-11-11T09:44:13.849Z,44.20
2018-11-11T09:46:42.772Z,42.50
2018-11-11T09:49:12.043Z,43.30
2018-11-11T09:51:41.078Z,41.27
2018-11-11T09:54:10.014Z,42.50
2018-11-11T09:56:38.988Z,43.03
2018-11-11T09:59:08.024Z,44.13
2018-11-11T10:01:37.021Z,43.87
2018-11-11T10:04:14.747Z,42.20
2018-11-11T10:07:17.286Z,43.23
2018-11-11T10:11:54.121Z,42.03
2018-11-11T10:14:29.242Z,42.73
2018-11-11T10:17:02.440Z,44.77
2018-11-11T10:19:36.701Z,42.97
2018-11-11T10:22:11.857Z,53.03
2018-11-11T10:24:50.003Z,42.67
2018-11-11T10:27:28.621Z,45.27
2018-11-11T10:30:03.337Z,46.83
2018-11-11T10:32:49.765Z,45.37
2018-11-11T10:35:27.163Z,44.53
2018-11-11T10:38:01.810Z,44.50
2018-11-11T10:40:41.794Z,45.13
2018-11-11T10:43:21.565Z,46.43
2018-11-11T10:45:56.884Z,46.10
2018-11-11T10:48:28.977Z,45.33
2018-11-11T10:50:59.988Z,45.13
2018-11-11T10:53:28.985Z,46.60
2018-11-11T10:55:57.880Z,44.97
2018-11-11T10:58:27.258Z,46.43
2018-11-11T11:01:01.456Z,46.73
2018-11-11T11:03:35.603Z,45.30
2018-11-11T11:06:05.053Z,46.70
2018-11-11T11:08:33.978Z,48.70
2018-11-11T11:11:02.909Z,45.50
2018-11-11T11:13:32.051Z,47.27
2018-11-11T11:16:01.678Z,46.60
2018-11-11T11:18:30.605Z,47.83
2018-11-11T11:20:59.584Z,51.33
2018-11-11T11:23:28.462Z,46.97
2018-11-11T11:25:57.445Z,48.23
2018-11-11T11:28:26.340Z,47.33
2018-11-11T11:30:55.388Z,46.93
2018-11-11T11:33:24.695Z,48.30
2018-11-11T11:35:54.372Z,48.27
2018-11-11T11:38:23.385Z,47.73
2018-11-11T11:40:52.320Z,49.67
2018-11-11T11:43:21.218Z,48.60
2018-11-11T11:45:50.102Z,49.50
2018-11-11T11:48:19.045Z,48.33
2018-11-11T11:50:47.932Z,46.50
2018-11-11T11:53:16.841Z,47.57
2018-11-11T11:55:45.744Z,47.20
2018-11-11T11:58:22.910Z,47.13
2018-11-11T12:00:51.892Z,49.50
2018-11-11T12:03:20.787Z,46.67
2018-11-11T12:05:49.695Z,44.70
2018-11-11T12:08:18.672Z,47.80
2018-11-11T12:10:47.574Z,50.87
2018-11-11T12:13:17.298Z,45.03
2018-11-11T12:15:46.372Z,45.03
2018-11-11T12:18:15.256Z,42.63
2018-11-11T12:20:44.304Z,41.87
2018-11-11T12:23:13.361Z,43.10
2018-11-11T12:25:42.524Z,42.53
2018-11-11T12:28:11.576Z,44.73
2018-11-11T12:30:40.601Z,46.50
2018-11-11T12:33:09.632Z,44.97
2018-11-11T12:35:38.620Z,51.53
2018-11-11T12:38:07.646Z,48.93
2018-11-11T12:40:36.533Z,50.67
2018-11-11T12:43:05.612Z,50.93
2018-11-11T12:45:34.562Z,48.70
2018-11-11T12:48:03.503Z,46.97
2018-11-11T12:50:32.391Z,47.13
2018-11-11T12:53:01.488Z,45.77
2018-11-11T12:55:30.504Z,46.87
2018-11-11T12:57:59.540Z,43.83
2018-11-11T13:00:34.516Z,45.43
2018-11-11T13:03:03.491Z,44.83
2018-11-11T13:05:32.396Z,43.53
2018-11-11T13:08:01.375Z,46.00
2018-11-11T13:10:30.311Z,51.93
2018-11-11T13:12:59.205Z,47.73
2018-11-11T13:15:29.497Z,46.30
2018-11-11T13:17:58.595Z,45.77
2018-11-11T13:20:27.604Z,52.67
2018-11-11T13:22:56.861Z,47.90
2018-11-11T13:25:25.626Z,49.47
2018-11-11T13:27:55.742Z,56.93
2018-11-11T13:30:24.747Z,54.53
2018-11-11T13:32:53.671Z,48.33
2018-11-11T13:35:22.596Z,48.70
2018-11-11T13:37:51.522Z,48.63
2018-11-11T13:40:20.740Z,48.57
2018-11-11T13:42:49.797Z,47.60
2018-11-11T13:45:20.298Z,49.40
2018-11-11T13:47:49.691Z,48.47
2018-11-11T13:50:20.175Z,52.03
2018-11-11T13:52:49.362Z,51.10
2018-11-11T13:55:18.697Z,52.13
2018-11-11T13:57:48.099Z,51.10
2018-11-11T14:00:20.449Z,50.77
2018-11-11T14:02:49.667Z,52.70
2018-11-11T14:05:18.619Z,51.43
2018-11-11T14:07:47.622Z,52.87
2018-11-11T14:10:17.213Z,53.60
2018-11-11T14:12:46.114Z,54.07
2018-11-11T14:15:20.380Z,51.13
2018-11-11T14:17:49.470Z,53.67
2018-11-11T14:20:20.018Z,53.57
2018-11-11T14:22:49.801Z,54.53
2018-11-11T14:25:22.376Z,55.03
2018-11-11T14:27:53.242Z,53.07
2018-11-11T14:30:24.511Z,58.07
2018-11-11T14:32:54.393Z,56.40
2018-11-11T14:35:23.378Z,53.13
2018-11-11T14:37:53.037Z,58.87
2018-11-11T14:40:26.249Z,56.33
2018-11-11T14:42:55.471Z,54.20
2018-11-11T14:45:24.979Z,52.50
2018-11-11T14:47:55.021Z,55.07
2018-11-11T14:50:24.767Z,54.07
2018-11-11T14:52:53.797Z,60.07
2018-11-11T14:55:24.215Z,56.00
2018-11-11T14:57:53.244Z,55.70
2018-11-11T15:00:24.909Z,57.47
2018-11-11T15:03:09.840Z,56.93
2018-11-11T15:05:38.824Z,56.60
2018-11-11T15:08:07.976Z,58.30
2018-11-11T15:10:36.956Z,58.97
2018-11-11T15:13:06.667Z,57.77
2018-11-11T15:15:36.876Z,58.33
2018-11-11T15:18:06.309Z,62.10
2018-11-11T15:20:35.742Z,58.70
2018-11-11T15:23:04.756Z,56.77
2018-11-11T15:25:33.754Z,75.77
2018-11-11T15:28:02.793Z,64.07
2018-11-11T15:30:33.340Z,58.00
2018-11-11T15:33:02.909Z,61.33
2018-11-11T15:35:31.820Z,64.77
2018-11-11T15:38:00.833Z,65.80
2018-11-11T15:40:32.408Z,60.83
2018-11-11T15:43:01.435Z,63.03
2018-11-11T15:45:31.752Z,69.33
2018-11-11T15:48:01.167Z,65.67
2018-11-11T15:50:31.394Z,65.57
2018-11-11T15:53:01.819Z,62.27
2018-11-11T15:55:32.029Z,62.30
2018-11-11T15:58:01.054Z,67.43
2018-11-11T16:00:31.531Z,68.33
2018-11-11T16:03:00.487Z,66.90
2018-11-11T16:05:29.624Z,67.83
2018-11-11T16:07:59.435Z,67.97
2018-11-11T16:10:29.721Z,70.63
2018-11-11T16:12:58.665Z,67.73
2018-11-11T16:15:30.898Z,69.17
2018-11-11T16:18:02.449Z,85.63
2018-11-11T16:20:31.911Z,81.40
2018-11-11T16:23:01.623Z,79.70
2018-11-11T16:25:30.626Z,77.87
2018-11-11T16:27:59.536Z,78.27
2018-11-11T16:30:29.862Z,80.73
2018-11-11T16:32:59.539Z,84.00
2018-11-11T16:35:29.307Z,89.40
2018-11-11T16:37:58.936Z,93.97
2018-11-11T16:40:29.596Z,78.03
2018-11-11T16:42:58.723Z,72.47
2018-11-11T16:45:30.102Z,72.80
2018-11-11T16:47:59.085Z,76.57
2018-11-11T16:50:29.956Z,74.67
2018-11-11T16:53:00.537Z,76.73
2018-11-11T16:55:30.768Z,74.47
2018-11-11T16:57:59.749Z,72.63
2018-11-11T17:00:30.145Z,71.83
2018-11-11T17:03:00.546Z,76.13
2018-11-11T17:05:32.051Z,71.37
2018-11-11T17:08:01.050Z,68.63
2018-11-11T17:10:33.967Z,72.90
2018-11-11T17:13:07.422Z,77.93
2018-11-11T17:15:37.098Z,79.37
2018-11-11T17:18:06.196Z,67.17
2018-11-11T17:20:35.311Z,71.90
2018-11-11T17:23:05.850Z,73.83
2018-11-11T17:25:34.764Z,71.00
2018-11-11T17:28:03.818Z,72.33
2018-11-11T17:30:33.262Z,75.13
2018-11-11T17:33:02.797Z,82.57
2018-11-11T17:35:31.677Z,84.53
2018-11-11T17:38:00.756Z,82.07
2018-11-11T17:40:30.871Z,82.00
2018-11-11T17:43:00.468Z,80.97
2018-11-11T17:45:29.428Z,77.80
2018-11-11T17:47:58.487Z,90.77
2018-11-11T17:50:28.786Z,85.30
2018-11-11T17:52:58.346Z,81.83
2018-11-11T17:55:27.998Z,86.33
2018-11-11T17:57:56.930Z,97.37
2018-11-11T18:00:27.179Z,114.47
2018-11-11T18:02:56.831Z,110.30
2018-11-11T18:05:28.259Z,95.17
2018-11-11T18:07:57.340Z,94.77
2018-11-11T18:10:26.747Z,89.20
2018-11-11T18:12:55.684Z,88.70
2018-11-11T18:15:27.310Z,88.57
2018-11-11T18:17:56.197Z,83.23
2018-11-11T18:20:27.329Z,82.10
2018-11-11T18:22:57.184Z,83.33
2018-11-11T18:25:26.102Z,86.87
2018-11-11T18:27:55.168Z,92.60
2018-11-11T18:30:27.624Z,91.37
2018-11-11T18:32:56.560Z,91.30
2018-11-11T18:35:25.484Z,97.47
2018-11-11T18:37:54.939Z,103.50
2018-11-11T18:40:25.482Z,95.27
2018-11-11T18:42:55.824Z,101.77
2018-11-11T18:45:29.199Z,114.63
2018-11-11T18:48:01.007Z,115.70
2018-11-11T18:50:31.321Z,107.13
2018-11-11T18:53:01.717Z,103.70
2018-11-11T18:55:30.628Z,93.43
2018-11-11T18:57:59.535Z,105.10
2018-11-11T19:00:30.171Z,105.10
2018-11-11T19:02:59.275Z,94.47
2018-11-11T19:05:28.745Z,99.93
2018-11-11T19:07:57.883Z,93.87
2018-11-11T19:10:28.258Z,94.23
2018-11-11T19:12:58.792Z,90.13
2018-11-11T19:15:27.844Z,90.53
2018-11-11T19:17:56.880Z,88.77
2018-11-11T19:20:26.684Z,88.27
2018-11-11T19:22:55.588Z,86.60
2018-11-11T19:25:25.928Z,86.50
2018-11-11T19:27:55.495Z,93.33
2018-11-11T19:30:26.014Z,100.03
2018-11-11T19:32:55.281Z,99.27
2018-11-11T19:35:24.393Z,96.23
2018-11-11T19:37:54.744Z,91.40
2018-11-11T19:40:25.854Z,84.70
2018-11-11T19:42:56.020Z,83.27
2018-11-11T19:45:27.160Z,79.10
2018-11-11T19:47:56.192Z,76.83
2018-11-11T19:50:26.177Z,73.17
2018-11-11T19:52:56.104Z,72.33
2018-11-11T19:55:25.156Z,71.70
2018-11-11T19:57:54.210Z,67.10
2018-11-11T20:00:26.183Z,68.13
2018-11-11T20:02:56.246Z,67.97
2018-11-11T20:05:25.254Z,63.90
2018-11-11T20:07:55.625Z,62.37
2018-11-11T20:10:25.670Z,63.03
2018-11-11T20:12:54.652Z,63.23
2018-11-11T20:15:26.975Z,62.60
2018-11-11T20:17:55.915Z,61.80
2018-11-11T20:20:29.453Z,59.63
2018-11-11T20:23:17.365Z,60.43
2018-11-11T20:25:47.626Z,62.47
2018-11-11T20:28:16.580Z,62.00
2018-11-11T20:30:45.551Z,63.87
2018-11-11T20:33:20.326Z,64.43
2018-11-11T20:35:49.884Z,62.60
2018-11-11T20:38:18.841Z,60.93
2018-11-11T20:40:47.924Z,59.07
2018-11-11T20:43:17.591Z,62.33
2018-11-11T20:45:46.640Z,60.63
2018-11-11T20:48:15.649Z,60.30
2018-11-11T20:50:44.669Z,62.20
2018-11-11T20:53:13.941Z,59.93
2018-11-11T20:55:42.988Z,60.47
2018-11-11T20:58:11.986Z,62.43
2018-11-11T21:00:40.967Z,63.40
2018-11-11T21:03:09.884Z,61.00
2018-11-11T21:05:38.851Z,61.00
2018-11-11T21:08:07.880Z,64.70
2018-11-11T21:10:36.932Z,64.73
2018-11-11T21:13:06.161Z,61.77
2018-11-11T21:15:35.105Z,63.33
2018-11-11T21:18:04.247Z,61.63
2018-11-11T21:20:33.659Z,60.77
2018-11-11T21:23:03.212Z,60.73
2018-11-11T21:25:32.437Z,63.73
2018-11-11T21:28:01.309Z,64.97
2018-11-11T21:30:31.663Z,62.37
2018-11-11T21:33:00.679Z,65.50
2018-11-11T21:35:29.640Z,67.00
2018-11-11T21:37:58.702Z,67.20
2018-11-11T21:40:28.299Z,65.87
2018-11-11T21:42:57.684Z,64.53
2018-11-11T21:45:27.549Z,64.17
2018-11-11T21:47:56.474Z,64.20
2018-11-11T21:50:26.531Z,60.37
2018-11-11T21:53:04.797Z,59.63
2018-11-11T21:55:34.729Z,57.97
2018-11-11T21:58:03.644Z,58.57
2018-11-11T22:00:32.656Z,58.43
2018-11-11T22:03:01.630Z,59.70
2018-11-11T22:05:30.653Z,56.40
2018-11-11T22:07:59.651Z,58.97
2018-11-11T22:10:28.632Z,60.60
2018-11-11T22:12:57.651Z,61.73
2018-11-11T22:15:26.601Z,63.70
2018-11-11T22:17:55.537Z,66.30
2018-11-11T22:20:24.560Z,67.30
2018-11-11T22:22:53.688Z,65.50
2018-11-11T22:25:22.626Z,67.27
2018-11-11T22:27:51.615Z,65.57
2018-11-11T22:30:20.631Z,66.70
2018-11-11T22:32:49.556Z,64.50
2018-11-11T22:35:18.515Z,61.63
2018-11-11T22:37:47.482Z,65.30
2018-11-11T22:40:16.413Z,63.70
2018-11-11T22:42:45.293Z,64.57
2018-11-11T22:45:15.388Z,63.53
2018-11-11T22:47:44.580Z,63.87
2018-11-11T22:50:15.548Z,67.43
2018-11-11T22:52:45.234Z,63.97
2018-11-11T22:55:14.344Z,66.07
2018-11-11T22:57:43.980Z,65.03
2018-11-11T23:00:21.651Z,67.00
2018-11-11T23:02:51.255Z,64.83
2018-11-11T23:05:22.456Z,65.73
2018-11-11T23:07:51.539Z,60.37
2018-11-11T23:10:20.496Z,58.90
2018-11-11T23:12:49.752Z,60.73
2018-11-11T23:15:20.077Z,59.23
2018-11-11T23:17:49.032Z,60.33
2018-11-11T23:20:19.295Z,60.97
2018-11-11T23:22:48.332Z,72.80
2018-11-11T23:25:18.132Z,78.90
2018-11-11T23:27:47.107Z,74.43
2018-11-11T23:30:17.888Z,67.97
2018-11-11T23:32:47.788Z,70.63
2018-11-11T23:35:16.796Z,68.60
2018-11-11T23:37:45.951Z,62.80
2018-11-11T23:40:16.236Z,64.13
2018-11-11T23:42:45.991Z,72.50
2018-11-11T23:45:14.998Z,70.40
2018-11-11T23:47:44.029Z,67.27
2018-11-11T23:50:15.676Z,66.03
2018-11-11T23:52:45.151Z,62.63
2018-11-11T23:55:15.903Z,62.27
2018-11-11T23:57:44.855Z,62.00
